Terminal Aerodrome Forecast
Issued by NWS

Home | Current Version | Previous Version | Graphics & Text | Print | Product List | Glossary On
Versions: 1 2 3 4 5 6 7 8 9 10 11 12 13
000
FTUS43 KBIS 151100
TAFJMS
TAF
KJMS 151136Z 1512/1612 VRB03KT P6SM SCT080
     FM151600 28007KT P6SM FEW140
     FM160100 VRB04KT P6SM SKC=

USA.gov is the U.S. government's official web portal to all federal, state and local government web resources and services.